Flight Track Log - Related Links

Times and Time Zones

All times are in EDT time to prevent confusion due to time zone crossing. See the LBQ840 flight status page for this flight to view local times or setup timezone preferences in your user account.

Time Position Orientation Groundspeed Altitude Reporting Facility
EDT Latitude Longitude Course Direction KTS MPH feet Rate Location/Type
Fri 09:27:07 PM 35.0333 -89.9667 158° South 120 138 800  Level Anchorage Center
Fri 09:27:46 PM 35.0000 -89.9500 68° East 134 154 2,300 1,538 Climbing Anchorage Center
Fri 09:29:04 PM 35.0167 -89.9000 73° East 158 182 3,800 1,235 Climbing Anchorage Center
Fri 09:30:02 PM 35.0333 -89.8333 68° East 183 211 5,100 1,385 Climbing Anchorage Center
Fri 09:31:01 PM 35.0500 -89.7833 51° Northeast 190 219 6,500 1,119 Climbing Anchorage Center
Fri 09:32:00 PM 35.0833 -89.7333 73° East 199 229 7,300 923 Climbing Anchorage Center
Fri 09:32:58 PM 35.1000 -89.6667 69° East 211 243 8,300 1,189 Climbing Anchorage Center
Fri 09:33:46 PM 35.1219 -89.5981 75° East 207 238 9,400 1,167 Climbing Memphis Center
Fri 09:34:46 PM 35.1381 -89.5267 70° East 244 281 10,400 1,100 Climbing Memphis Center
Fri 09:35:46 PM 35.1583 -89.4581 73° East 226 260 11,600 1,200 Climbing Memphis Center
Fri 09:36:46 PM 35.1747 -89.3917 72° East 216 249 12,800 1,100 Climbing Memphis Center
Fri 09:37:46 PM 35.1908 -89.3306 72° East 206 237 13,800 1,000 Climbing Memphis Center
Fri 09:38:46 PM 35.2089 -89.2642 73° East 206 237 14,800 950 Climbing Memphis Center
Fri 09:39:46 PM 35.2250 -89.1981 72° East 206 237 15,700 900 Climbing Memphis Center
Fri 09:40:46 PM 35.2433 -89.1292 65° Northeast 206 237 16,600 650 Climbing Memphis Center
Fri 09:41:46 PM 35.2697 -89.0600 63° Northeast 218 251 17,000 200 Climbing Memphis Center
Fri 09:42:46 PM 35.3000 -88.9883 62° Northeast 229 264 17,000  Level Memphis Center
Fri 09:43:46 PM 35.3367 -88.9036 63° Northeast 237 273 17,000  Level Memphis Center
Fri 09:44:46 PM 35.3692 -88.8267 63° Northeast 247 284 17,000  Level Memphis Center
Fri 09:45:46 PM 35.4017 -88.7497 62° Northeast 247 284 17,000  Level Memphis Center
Fri 09:46:46 PM 35.4339 -88.6753 62° Northeast 247 284 17,000  Level Memphis Center
Fri 09:47:46 PM 35.4664 -88.6006 61° Northeast 242 278 17,000  Level Memphis Center
Fri 09:48:46 PM 35.5006 -88.5261 61° Northeast 247 284 17,000  Level Memphis Center
Fri 09:49:46 PM 35.5350 -88.4486 61° Northeast 247 284 17,000 -50 Level Memphis Center
Fri 09:50:46 PM 35.5692 -88.3739 64° Northeast 247 284 16,900  Descending Memphis Center
Fri 09:51:46 PM 35.5992 -88.2992 62° Northeast 247 284 17,000 50 Climbing Memphis Center
Fri 09:52:46 PM 35.6333 -88.2192 62° Northeast 247 284 17,000  Level Memphis Center
Fri 09:53:46 PM 35.6575 -88.1622 61° Northeast 247 284 17,000  Level Memphis Center
Fri 09:54:46 PM 35.6975 -88.0742 63° Northeast 247 284 17,000 -150 Level Memphis Center
Fri 09:55:46 PM 35.7294 -87.9967 65° Northeast 247 284 16,700 -850 Descending Memphis Center
Fri 09:56:46 PM 35.7611 -87.9139 62° Northeast 253 291 15,300 -1,400 Descending Memphis Center
Fri 09:57:46 PM 35.7992 -87.8258 62° Northeast 270 311 13,900 -1,350 Descending Memphis Center
Fri 09:58:46 PM 35.8369 -87.7375 62° Northeast 275 316 12,600 -1,250 Descending Memphis Center
Fri 09:59:46 PM 35.8725 -87.6544 63° Northeast 280 322 11,400 -1,100 Descending Memphis Center
Fri 10:00:46 PM 35.9083 -87.5686 64° Northeast 280 322 10,400 -950 Descending Memphis Center
Fri 10:01:46 PM 35.9417 -87.4856 63° Northeast 275 316 9,500 -950 Descending Memphis Center
Fri 10:02:46 PM 35.9733 -87.4075 64° Northeast 265 305 8,500 -950 Descending Memphis Center
Fri 10:03:46 PM 36.0067 -87.3214 66° East 260 299 7,600 -1,050 Descending Memphis Center
Fri 10:04:46 PM 36.0339 -87.2461 66° East 260 299 6,400 -1,300 Descending Memphis Center
Fri 10:05:46 PM 36.0653 -87.1603 64° Northeast 260 299 5,000 -900 Descending Memphis Center
Fri 10:06:46 PM 36.0983 -87.0767 64° Northeast 265 305 4,600 1,000 Descending Memphis Center
Fri 10:07:46 PM 36.1317 -86.9906 62° Northeast 265 305 7,000 1,200 Climbing Memphis Center
Fri 10:08:46 PM 36.1669 -86.9067 65° Northeast 265 305 7,000  Level Memphis Center
Fri 10:09:46 PM 36.1997 -86.8206 58° Northeast 265 305 7,000  Level Memphis Center
Fri 10:10:46 PM 36.2078 -86.8047 360° North 265 305 7,000  Level Memphis Center
Fri 10:11:46 PM 36.2078 -86.8047 360° North 265 305 7,000  Level Memphis Center
Fri 10:12:46 PM 36.2078 -86.8047 360° North 265 305 7,000  Level Memphis Center
Fri 10:13:46 PM 36.2078 -86.8047 360° North 265 305 7,000  Level Memphis Center
Fri 10:14:46 PM 36.2078 -86.8047 249° West 265 305 7,000  Level Memphis Center
Fri 10:22:32 PM 36.0263 -87.3850 71° East  Level Estimated
Fri 10:23:32 PM 36.1667 -86.8833 69° East  Level FlightAware Approximate
Fri 10:24:32 PM 36.1899 -86.8101 251° West  Level FlightAware Approximate
Fri 10:25:32 PM 36.1771 -86.8574 283° West  Level FlightAware Approximate
Fri 10:26:32 PM 36.1912 -86.9356 120° Southeast  Level Estimated
Fri 10:27:32 PM 36.1667 -86.8833 120° Southeast  Level FlightAware Approximate

Login

Don't have an account? Register now (free) for customized features, flight alerts, and more!